createdAt,value
2023-05-15T00:00:00.870Z,13.4
2023-05-15T00:03:00.990Z,13.4
2023-05-15T00:06:00.789Z,13.4
2023-05-15T00:09:00.804Z,13.4
2023-05-15T00:12:00.836Z,13.4
2023-05-15T00:15:00.812Z,13.1
2023-05-15T00:18:00.869Z,13.1
2023-05-15T00:21:00.847Z,13.1
2023-05-15T00:24:00.843Z,13.1
2023-05-15T00:27:00.830Z,13.1
2023-05-15T00:30:00.851Z,13.1
2023-05-15T00:33:00.907Z,13.1
2023-05-15T00:36:00.829Z,13.1
2023-05-15T00:39:00.839Z,13.1
2023-05-15T00:42:02.423Z,13.1
2023-05-15T00:45:00.868Z,13.1
2023-05-15T00:48:00.907Z,13
2023-05-15T00:51:00.808Z,13
2023-05-15T00:54:00.966Z,13
2023-05-15T00:57:00.850Z,13
2023-05-15T01:00:01.029Z,13
2023-05-15T01:03:01.160Z,13
2023-05-15T01:06:00.795Z,13
2023-05-15T01:09:00.805Z,13
2023-05-15T01:12:00.918Z,13
2023-05-15T01:15:00.834Z,13
2023-05-15T01:18:00.984Z,13
2023-05-15T01:21:00.843Z,13
2023-05-15T01:24:00.810Z,13
2023-05-15T01:27:00.893Z,12.5
2023-05-15T01:30:00.836Z,12.5
2023-05-15T01:33:00.977Z,12.5
2023-05-15T01:36:00.808Z,12.5
2023-05-15T01:39:00.803Z,12.5
2023-05-15T01:42:00.870Z,12.5
2023-05-15T01:45:01.593Z,12.5
2023-05-15T01:48:00.999Z,12.5
2023-05-15T01:51:00.845Z,12.5
2023-05-15T01:54:00.851Z,12.5
2023-05-15T01:57:00.829Z,12.5
2023-05-15T02:00:00.972Z,12.5
2023-05-15T02:03:00.996Z,12
2023-05-15T02:06:00.894Z,12
2023-05-15T02:09:00.804Z,12
2023-05-15T02:12:00.878Z,12
2023-05-15T02:15:00.839Z,12
2023-05-15T02:18:01.008Z,12
2023-05-15T02:21:00.801Z,12
2023-05-15T02:24:00.802Z,11.8
2023-05-15T02:27:00.824Z,11.8
2023-05-15T02:30:00.842Z,11.8
2023-05-15T02:33:01.062Z,11.8
2023-05-15T02:36:00.834Z,11.8
2023-05-15T02:39:00.817Z,11.8
2023-05-15T02:42:00.840Z,11.8
2023-05-15T02:45:00.804Z,11.8
2023-05-15T02:48:00.886Z,11.8
2023-05-15T02:51:00.787Z,11.8
2023-05-15T02:54:00.850Z,11.8
2023-05-15T02:57:00.804Z,11.8
2023-05-15T03:00:00.881Z,11.8
2023-05-15T03:03:00.895Z,11.8
2023-05-15T03:06:00.927Z,11.4
2023-05-15T03:09:00.833Z,11.4
2023-05-15T03:12:00.805Z,11.4
2023-05-15T03:15:00.823Z,11.4
2023-05-15T03:18:00.907Z,11.4
2023-05-15T03:21:00.828Z,11.4
2023-05-15T03:24:00.832Z,11.4
2023-05-15T03:27:00.816Z,11.4
2023-05-15T03:30:00.977Z,11.4
2023-05-15T03:33:00.910Z,11.4
2023-05-15T03:36:00.866Z,11.4
2023-05-15T03:39:00.906Z,10.9
2023-05-15T03:42:00.880Z,10.9
2023-05-15T03:45:00.864Z,10.9
2023-05-15T03:48:01.015Z,10.9
2023-05-15T03:51:00.887Z,10.9
2023-05-15T03:54:00.901Z,10.9
2023-05-15T03:57:00.846Z,10.9
2023-05-15T04:00:01.023Z,10.9
2023-05-15T04:03:00.979Z,10.9
2023-05-15T04:06:00.872Z,10.9
2023-05-15T04:09:00.832Z,10.9
2023-05-15T04:12:00.963Z,10.9
2023-05-15T04:15:00.913Z,10.9
2023-05-15T04:18:00.882Z,10.9
2023-05-15T04:21:00.904Z,10.9
2023-05-15T04:24:00.939Z,10.9
2023-05-15T04:27:00.942Z,10.9
2023-05-15T04:30:00.899Z,10.9
2023-05-15T04:33:00.924Z,10.9
2023-05-15T04:36:00.879Z,10.9
2023-05-15T04:39:00.906Z,10.9
2023-05-15T04:42:00.837Z,10.9
2023-05-15T04:45:01.167Z,10.9
2023-05-15T04:48:00.985Z,10.9
2023-05-15T04:51:00.865Z,10.9
2023-05-15T04:54:00.862Z,10.9
2023-05-15T04:57:00.841Z,10.9
2023-05-15T05:00:00.978Z,10.9
2023-05-15T05:03:01.026Z,10.9
2023-05-15T05:06:00.857Z,10.9
2023-05-15T05:09:00.852Z,10.9
2023-05-15T05:12:00.886Z,10.9
2023-05-15T05:15:00.876Z,10.9
2023-05-15T05:18:01.050Z,10.9
2023-05-15T05:21:00.845Z,10.9
2023-05-15T05:24:00.898Z,10.9
2023-05-15T05:27:00.998Z,10.9
2023-05-15T05:30:01.151Z,10.9
2023-05-15T05:33:01.036Z,11.4
2023-05-15T05:36:00.856Z,11.4
2023-05-15T05:39:00.893Z,11.4
2023-05-15T05:42:00.838Z,11.4
2023-05-15T05:45:00.869Z,11.4
2023-05-15T05:48:00.879Z,11.4
2023-05-15T05:51:00.915Z,11.4
2023-05-15T05:54:00.844Z,11.4
2023-05-15T05:57:00.892Z,11.4
2023-05-15T06:00:00.935Z,12
2023-05-15T06:03:01.135Z,12
2023-05-15T06:06:00.860Z,12
2023-05-15T06:09:00.904Z,12
2023-05-15T06:12:00.958Z,12
2023-05-15T06:15:00.928Z,12.6
2023-05-15T06:18:00.970Z,12.6
2023-05-15T06:21:00.874Z,12.6
2023-05-15T06:24:01.004Z,12.6
2023-05-15T06:27:00.863Z,12.6
2023-05-15T06:30:00.951Z,13.1
2023-05-15T06:33:01.248Z,13.1
2023-05-15T06:36:00.867Z,13.1
2023-05-15T06:39:00.917Z,13.1
2023-05-15T06:42:00.888Z,13.1
2023-05-15T06:45:01.044Z,13.1
2023-05-15T06:48:02.251Z,13.1
2023-05-15T06:51:00.878Z,13.6
2023-05-15T06:54:00.820Z,13.6
2023-05-15T06:57:00.957Z,13.6
2023-05-15T07:00:01.211Z,13.6
2023-05-15T07:03:00.880Z,13.6
2023-05-15T07:06:00.917Z,13.6
2023-05-15T07:09:00.932Z,13.6
2023-05-15T07:12:00.815Z,13.6
2023-05-15T07:15:00.801Z,14.1
2023-05-15T07:18:01.269Z,14.1
2023-05-15T07:21:00.860Z,14.1
2023-05-15T07:24:00.830Z,14.1
2023-05-15T07:27:00.965Z,14.1
2023-05-15T07:30:00.963Z,14.6
2023-05-15T07:33:00.991Z,14.6
2023-05-15T07:36:00.970Z,14.6
2023-05-15T07:39:00.835Z,14.6
2023-05-15T07:42:00.888Z,14.6
2023-05-15T07:45:00.896Z,14.6
2023-05-15T07:48:00.947Z,15.1
2023-05-15T07:51:00.798Z,15.1
2023-05-15T07:54:00.836Z,15.1
2023-05-15T07:57:00.910Z,15.1
2023-05-15T08:00:00.959Z,15.1
2023-05-15T08:03:01.101Z,15.6
2023-05-15T08:06:00.913Z,15.6
2023-05-15T08:09:00.885Z,15.6
2023-05-15T08:12:00.796Z,15.6
2023-05-15T08:15:00.951Z,15.6
2023-05-15T08:18:00.900Z,16.1
2023-05-15T08:21:02.976Z,16.1
2023-05-15T08:24:00.874Z,16.1
2023-05-15T08:27:00.832Z,16.1
2023-05-15T08:30:00.917Z,16.6
2023-05-15T08:33:00.963Z,16.6
2023-05-15T08:36:00.946Z,16.6
2023-05-15T08:39:00.902Z,16.6
2023-05-15T08:42:01.073Z,16.6
2023-05-15T08:45:00.892Z,17.1
2023-05-15T08:48:01.089Z,17.1
2023-05-15T08:51:00.830Z,17.1
2023-05-15T08:54:00.871Z,17.1
2023-05-15T08:57:00.851Z,17.1
2023-05-15T09:00:00.928Z,17.6
2023-05-15T09:03:01.073Z,17.6
2023-05-15T09:06:00.870Z,17.6
2023-05-15T09:09:00.904Z,17.6
2023-05-15T09:12:00.838Z,17.6
2023-05-15T09:15:00.840Z,17.6
2023-05-15T09:18:00.944Z,17.6
2023-05-15T09:21:00.857Z,18.1
2023-05-15T09:24:00.909Z,18.1
2023-05-15T09:27:00.863Z,18.1
2023-05-15T09:30:00.930Z,18.1
2023-05-15T09:33:00.945Z,18.1
2023-05-15T09:36:00.851Z,18.6
2023-05-15T09:39:00.885Z,18.6
2023-05-15T09:42:00.917Z,18.6
2023-05-15T09:45:00.975Z,18.6
2023-05-15T09:48:01.049Z,18.6
2023-05-15T09:51:00.959Z,18.6
2023-05-15T09:54:00.929Z,19.1
2023-05-15T09:57:00.920Z,19.1
2023-05-15T10:00:00.866Z,19.1
2023-05-15T10:03:00.966Z,19.1
2023-05-15T10:06:00.973Z,19.1
2023-05-15T10:09:00.864Z,19.1
2023-05-15T10:12:00.873Z,19.1
2023-05-15T10:15:01.061Z,19.6
2023-05-15T10:18:00.871Z,19.6
2023-05-15T10:21:00.928Z,19.6
2023-05-15T10:24:00.929Z,19.6
2023-05-15T10:27:00.872Z,19.6
2023-05-15T13:00:01.119Z,17.8
2023-05-15T13:03:00.998Z,17.8
2023-05-15T13:06:00.920Z,17.8
2023-05-15T13:09:00.946Z,18.3
2023-05-15T13:12:00.846Z,18.3
2023-05-15T13:15:00.839Z,18.3
2023-05-15T13:18:01.058Z,18.3
2023-05-15T13:21:01.569Z,18.3
2023-05-15T13:24:00.905Z,18.8
2023-05-15T13:27:00.938Z,18.8
2023-05-15T13:30:00.866Z,18.8
2023-05-15T13:33:01.289Z,18.8
2023-05-15T13:36:00.808Z,18.8
2023-05-15T13:39:00.898Z,18.8
2023-05-15T13:42:00.941Z,18.8
2023-05-15T13:45:00.881Z,18.8
2023-05-15T13:48:01.114Z,19.4
2023-05-15T13:51:00.853Z,19.4
2023-05-15T13:54:00.911Z,19.4
2023-05-15T13:57:01.094Z,19.4
2023-05-15T14:00:00.928Z,19.4
2023-05-15T14:03:01.065Z,19.6
2023-05-15T14:06:00.928Z,19.6
2023-05-15T14:09:00.888Z,19.6
2023-05-15T14:12:00.836Z,19.6
2023-05-15T14:15:00.881Z,19.6
2023-05-15T14:18:00.931Z,20.2
2023-05-15T14:21:01.055Z,20.2
2023-05-15T14:24:00.861Z,20.2
2023-05-15T14:27:00.859Z,20.2
2023-05-15T14:30:00.941Z,20.2
2023-05-15T14:33:00.971Z,20.2
2023-05-15T14:36:00.915Z,20.2
2023-05-15T14:39:01.000Z,20.2
2023-05-15T14:42:00.876Z,20.2
2023-05-15T14:45:00.863Z,20.2
2023-05-15T14:48:00.915Z,20.2
2023-05-15T14:51:00.959Z,20.2
2023-05-15T14:54:00.913Z,20.2
2023-05-15T14:57:00.969Z,20.2
2023-05-15T15:00:00.986Z,20.2
2023-05-15T15:03:00.972Z,20.2
2023-05-15T15:06:00.912Z,20.2
2023-05-15T15:09:00.851Z,20.2
2023-05-15T15:12:00.991Z,20.2
2023-05-15T15:15:00.842Z,20.2
2023-05-15T15:18:01.065Z,20.2
2023-05-15T15:21:00.849Z,20.2
2023-05-15T15:24:00.890Z,20.2
2023-05-15T15:27:00.944Z,20.2
2023-05-15T15:30:00.932Z,20.2
2023-05-15T15:33:01.009Z,20
2023-05-15T15:36:00.887Z,20
2023-05-15T15:39:00.816Z,20
2023-05-15T15:42:00.882Z,19.4
2023-05-15T15:45:00.921Z,19.4
2023-05-15T15:48:00.963Z,19.4
2023-05-15T15:51:00.850Z,18.9
2023-05-15T15:54:00.954Z,18.9
2023-05-15T15:57:00.876Z,18.9
2023-05-15T16:00:00.998Z,18.5
2023-05-15T16:03:00.984Z,18.5
2023-05-15T16:06:00.948Z,18.5
2023-05-15T16:09:00.838Z,18.5
2023-05-15T16:12:00.877Z,18.5
2023-05-15T16:15:22.945Z,18.5
2023-05-15T16:18:00.935Z,18.5
2023-05-15T16:21:00.847Z,18.5
2023-05-15T16:24:00.904Z,18.5
2023-05-15T16:27:00.854Z,18.5
2023-05-15T16:30:01.097Z,18.7
2023-05-15T16:33:00.967Z,18.7
2023-05-15T16:36:00.902Z,18.7
2023-05-15T16:39:00.870Z,18.7
2023-05-15T16:42:00.905Z,18.7
2023-05-15T16:45:00.889Z,18.7
2023-05-15T16:48:01.053Z,18.7
2023-05-15T16:51:00.900Z,18.7
2023-05-15T16:54:00.934Z,18.7
2023-05-15T16:57:00.838Z,18.7
2023-05-15T17:00:00.981Z,18.7
2023-05-15T17:03:00.987Z,18.7
2023-05-15T17:06:00.917Z,18.7
2023-05-15T17:09:00.837Z,18.7
2023-05-15T17:12:00.922Z,18.7
2023-05-15T17:15:00.958Z,18.7
2023-05-15T17:18:00.943Z,18.7
2023-05-15T17:21:00.874Z,18.7
2023-05-15T17:24:01.061Z,18.7
2023-05-15T17:27:00.861Z,18.7
2023-05-15T17:30:01.013Z,18.7
2023-05-15T17:33:00.903Z,18.7
2023-05-15T17:36:00.886Z,18.7
2023-05-15T17:39:01.086Z,18.7
2023-05-15T17:42:00.872Z,18.7
2023-05-15T17:45:00.893Z,18.6
2023-05-15T17:48:00.924Z,18.6
2023-05-15T17:51:00.843Z,18.6
2023-05-15T17:54:00.851Z,18.6
2023-05-15T17:57:00.905Z,18.6
2023-05-15T18:00:00.916Z,18.6
2023-05-15T18:03:01.155Z,18.1
2023-05-15T18:06:00.848Z,18.1
2023-05-15T18:09:00.856Z,18.1
2023-05-15T18:12:00.852Z,18.1
2023-05-15T18:15:00.977Z,18.1
2023-05-15T18:18:01.332Z,18.1
2023-05-15T18:21:00.902Z,18.1
2023-05-15T18:24:00.823Z,17.7
2023-05-15T18:27:00.861Z,17.7
2023-05-15T18:30:00.973Z,17.7
2023-05-15T18:33:01.017Z,17.7
2023-05-15T18:36:00.847Z,17.7
2023-05-15T18:39:00.868Z,17.7
2023-05-15T18:42:00.868Z,17.2
2023-05-15T18:45:00.968Z,17.2
2023-05-15T18:48:00.917Z,17.2
2023-05-15T18:51:00.858Z,17.2
2023-05-15T18:54:00.838Z,17.2
2023-05-15T18:57:00.854Z,17.2
2023-05-15T19:00:00.928Z,17.2
2023-05-15T19:03:01.141Z,17.2
2023-05-15T19:06:00.863Z,17.2
2023-05-15T19:09:00.823Z,17.2
2023-05-15T19:12:00.859Z,17.2
2023-05-15T19:15:00.821Z,17
2023-05-15T19:18:00.865Z,17
2023-05-15T19:21:00.806Z,17
2023-05-15T19:24:00.807Z,17
2023-05-15T19:27:00.778Z,17
2023-05-15T19:30:00.890Z,17
2023-05-15T19:33:00.891Z,16.7
2023-05-15T19:36:00.943Z,16.7
2023-05-15T19:39:00.827Z,16.7
2023-05-15T19:42:00.840Z,16.7
2023-05-15T19:45:00.827Z,16.7
2023-05-15T19:48:00.914Z,16.7
2023-05-15T19:51:00.873Z,16.7
2023-05-15T19:54:00.838Z,16.7
2023-05-15T19:57:00.824Z,16.7
2023-05-15T20:00:00.966Z,16.2
2023-05-15T20:03:01.268Z,16.2
2023-05-15T20:06:00.859Z,16.2
2023-05-15T20:09:00.877Z,16.2
2023-05-15T20:12:01.393Z,16.2
2023-05-15T20:15:00.846Z,16
2023-05-15T20:18:00.914Z,16
2023-05-15T20:21:00.798Z,16
2023-05-15T20:24:00.827Z,16
2023-05-15T20:27:00.776Z,15.8
2023-05-15T20:30:00.834Z,15.8
2023-05-15T20:33:01.015Z,15.8
2023-05-15T20:36:00.799Z,15.8
2023-05-15T20:39:00.848Z,15.8
2023-05-15T20:42:00.895Z,15.8
2023-05-15T20:45:00.973Z,15.8
2023-05-15T20:48:00.914Z,15.8
2023-05-15T20:51:00.830Z,15.8
2023-05-15T20:54:00.813Z,15.3
2023-05-15T20:57:00.825Z,15.3
2023-05-15T21:00:00.904Z,15.3
2023-05-15T21:03:01.085Z,15.3
2023-05-15T21:06:00.825Z,15.3
2023-05-15T21:09:00.862Z,15.3
2023-05-15T21:12:00.810Z,15.3
2023-05-15T21:15:00.944Z,15.3
2023-05-15T21:18:00.902Z,14.8
2023-05-15T21:21:00.808Z,14.8
2023-05-15T21:24:00.864Z,14.8
2023-05-15T21:27:00.844Z,14.8
2023-05-15T21:30:00.881Z,14.2
2023-05-15T21:33:00.934Z,14.2
2023-05-15T21:36:00.803Z,14.2
2023-05-15T21:39:00.899Z,14.2
2023-05-15T21:42:00.849Z,13.7
2023-05-15T21:45:00.813Z,13.7
2023-05-15T21:48:00.979Z,13.7
2023-05-15T21:51:00.812Z,13.7
2023-05-15T21:54:00.900Z,13.2
2023-05-15T21:57:00.865Z,13.2
2023-05-15T22:00:01.457Z,13.2
2023-05-15T22:03:00.999Z,13.2
2023-05-15T22:06:00.850Z,13.2
2023-05-15T22:09:00.818Z,13.2
2023-05-15T22:12:00.794Z,13.2
2023-05-15T22:15:00.834Z,12.7
2023-05-15T22:18:00.856Z,12.7
2023-05-15T22:21:00.856Z,12.7
2023-05-15T22:24:00.812Z,12.7
2023-05-15T22:27:00.826Z,12.7
2023-05-15T22:30:00.855Z,12.7
2023-05-15T22:33:00.995Z,12.2
2023-05-15T22:36:00.849Z,12.2
2023-05-15T22:39:00.816Z,12.2
2023-05-15T22:42:00.831Z,12.2
2023-05-15T22:45:00.852Z,11.7
2023-05-15T22:48:00.917Z,11.7
2023-05-15T22:51:00.803Z,11.7
2023-05-15T22:54:00.858Z,11.7
2023-05-15T22:57:00.828Z,11.2
2023-05-15T23:00:00.944Z,11.2
2023-05-15T23:03:00.940Z,11.2
2023-05-15T23:06:00.833Z,11.2
2023-05-15T23:09:00.874Z,11.2
2023-05-15T23:12:00.891Z,11.2
2023-05-15T23:15:00.836Z,11.2
2023-05-15T23:18:00.994Z,11.2
2023-05-15T23:21:00.842Z,11.2
2023-05-15T23:24:00.822Z,11.2
2023-05-15T23:27:00.860Z,11.2
2023-05-15T23:30:00.819Z,10.7
2023-05-15T23:33:01.064Z,10.7
2023-05-15T23:36:00.817Z,10.7
2023-05-15T23:39:00.834Z,10.7
2023-05-15T23:42:00.883Z,10.7
2023-05-15T23:45:00.868Z,10.7
2023-05-15T23:48:00.866Z,10.7
2023-05-15T23:51:00.915Z,10.7
2023-05-15T23:54:00.863Z,10.7
2023-05-15T23:57:00.837Z,10.7
